地図

経路データ

SID SEASON NUMBER BASIN SUBBASIN NAME ISO_TIME NATURE LAT LON WMO_WIND WMO_PRES WMO_AGENCY TRACK_TYPE DIST2LAND LANDFALL IFLAG USA_AGENCY USA_ATCF_ID USA_LAT USA_LON USA_RECORD USA_STATUS USA_WIND USA_PRES USA_SSHS USA_R34_NE USA_R34_SE USA_R34_SW USA_R34_NW USA_R50_NE USA_R50_SE USA_R50_SW USA_R50_NW USA_R64_NE USA_R64_SE USA_R64_SW USA_R64_NW USA_POCI USA_ROCI USA_RMW USA_EYE TOKYO_LAT TOKYO_LON TOKYO_GRADE TOKYO_WIND TOKYO_PRES TOKYO_R50_DIR TOKYO_R50_LONG TOKYO_R50_SHORT TOKYO_R30_DIR TOKYO_R30_LONG TOKYO_R30_SHORT TOKYO_LAND CMA_LAT CMA_LON CMA_CAT CMA_WIND CMA_PRES HKO_LAT HKO_LON HKO_CAT HKO_WIND HKO_PRES NEWDELHI_LAT NEWDELHI_LON NEWDELHI_GRADE NEWDELHI_WIND NEWDELHI_PRES NEWDELHI_CI NEWDELHI_DP NEWDELHI_POCI REUNION_LAT REUNION_LON REUNION_TYPE REUNION_WIND REUNION_PRES REUNION_TNUM REUNION_CI REUNION_RMW REUNION_R34_NE REUNION_R34_SE REUNION_R34_SW REUNION_R34_NW REUNION_R50_NE REUNION_R50_SE REUNION_R50_SW REUNION_R50_NW REUNION_R64_NE REUNION_R64_SE REUNION_R64_SW REUNION_R64_NW BOM_LAT BOM_LON BOM_TYPE BOM_WIND BOM_PRES BOM_TNUM BOM_CI BOM_RMW BOM_R34_NE BOM_R34_SE BOM_R34_SW BOM_R34_NW BOM_R50_NE BOM_R50_SE BOM_R50_SW BOM_R50_NW BOM_R64_NE BOM_R64_SE BOM_R64_SW BOM_R64_NW BOM_ROCI BOM_POCI BOM_EYE BOM_POS_METHOD BOM_PRES_METHOD NADI_LAT NADI_LON NADI_CAT NADI_WIND NADI_PRES WELLINGTON_LAT WELLINGTON_LON WELLINGTON_WIND WELLINGTON_PRES DS824_LAT DS824_LON DS824_STAGE DS824_WIND DS824_PRES TD9636_LAT TD9636_LON TD9636_STAGE TD9636_WIND TD9636_PRES TD9635_LAT TD9635_LON TD9635_WIND TD9635_PRES TD9635_ROCI NEUMANN_LAT NEUMANN_LON NEUMANN_CLASS NEUMANN_WIND NEUMANN_PRES MLC_LAT MLC_LON MLC_CLASS MLC_WIND MLC_PRES USA_GUST BOM_GUST BOM_GUST_PER REUNION_GUST REUNION_GUST_PER USA_SEAHGT USA_SEARAD_NE USA_SEARAD_SE USA_SEARAD_SW USA_SEARAD_NW STORM_SPEED STORM_DIR
1922208N21088 1922 38 NI BB NOT_NAMED 1922-07-27 00:00:00 TS 21.0000 88.2000 main 67 56 _________O____ -1 21.0000 88.2000 TC 30 2 306
1922208N21088 1922 38 NI BB NOT_NAMED 1922-07-27 03:00:00 TS 21.0650 88.1100 main 56 49 _________PO___ -1 21.0975 88.0650 TC 30 21.0000 88.2000 1 3 304
1922208N21088 1922 38 NI BB NOT_NAMED 1922-07-27 06:00:00 TS 21.1710 87.9273 main 54 44 _________OP___ -1 21.2000 87.9000 TC 30 21.1275 87.9682 1 4 301
1922208N21088 1922 38 NI BB NOT_NAMED 1922-07-27 09:00:00 TS 21.2803 87.7210 main 44 30 _________PP___ -1 21.3075 87.6925 TC 30 21.2439 87.7589 1 4 299
1922208N21088 1922 38 NI BB NOT_NAMED 1922-07-27 12:00:00 TS 21.3691 87.5475 main 24 24 _________OP___ -1 21.4000 87.5000 TC 30 21.3383 87.5951 1 3 300
1922208N21088 1922 38 NI BB NOT_NAMED 1922-07-27 15:00:00 TS 21.4287 87.4462 main 22 11 _________PO___ -1 21.4574 87.3924 TC 30 21.4000 87.5000 1 2 302
1922208N21088 1922 38 NI BB NOT_NAMED 1922-07-27 18:00:00 TS 21.4630 87.3885 main 11 11 _________OP___ -1 21.5000 87.3000 TC 30 21.4261 87.4769 1 1 301
1922208N21088 1922 38 NI BB NOT_NAMED 1922-07-27 21:00:00 TS 21.4819 87.3559 main 11 10 _________PP___ -1 21.5193 87.2620 TC 30 21.4445 87.4499 1 2 292
1922208N21088 1922 38 NI BB NOT_NAMED 1922-07-28 00:00:00 TS 21.5453 87.1615 main 10 0 _________OP___ -1 21.6000 87.0000 TC 30 21.4907 87.3230 1 7 288
1922208N21088 1922 38 NI BB NOT_NAMED 1922-07-28 03:00:00 TS 21.7066 86.6276 main 0 0 _________PO___ -1 21.8132 86.2553 TC 30 21.6000 87.0000 1 13 288
1922208N21088 1922 38 NI BB NOT_NAMED 1922-07-28 06:00:00 TS 21.9589 85.8100 main 0 0 _________OP___ -1 22.1000 85.3000 TC 30 21.8179 86.3200 1 17 289
1922208N21088 1922 38 NI BB NOT_NAMED 1922-07-28 09:00:00 TS 22.2476 84.9291 main 0 0 _________PP___ -1 22.4001 84.4127 TC 30 22.0952 85.4455 1 17 290
1922208N21088 1922 38 NI BB NOT_NAMED 1922-07-28 12:00:00 TS 22.5496 84.0489 main 0 0 _________OP___ -1 22.7000 83.6000 TC 30 22.3993 84.4979 1 16 291
1922208N21088 1922 38 NI BB NOT_NAMED 1922-07-28 15:00:00 TS 22.8284 83.2810 main 0 0 _________PO___ -1 22.9568 82.9620 TC 30 22.7000 83.6000 1 14 293
1922208N21088 1922 38 NI BB NOT_NAMED 1922-07-28 18:00:00 TS 23.0945 82.6236 main 0 0 _________OP___ -1 23.2000 82.4000 TC 30 22.9889 82.8473 1 13 294
1922208N21088 1922 38 NI BB NOT_NAMED 1922-07-28 21:00:00 TS 23.3736 81.9506 main 0 0 _________PP___ -1 23.4804 81.7254 TC 30 23.2669 82.1758 1 12 295
1922208N21088 1922 38 NI BB NOT_NAMED 1922-07-29 00:00:00 TS 23.6057 81.4081 main 0 0 _________OP___ -1 23.7000 81.2000 TC 30 23.5113 81.6162 1 9 295
1922208N21088 1922 38 NI BB NOT_NAMED 1922-07-29 03:00:00 TS 23.7398 81.1123 main 0 0 _________PO___ -1 23.7796 81.0246 TC 30 23.7000 81.2000 1 4 296
1922208N21088 1922 38 NI BB NOT_NAMED 1922-07-29 06:00:00 TS 23.7989 80.9754 main 0 0 _________OP___ -1 23.8000 81.0000 TC 30 23.7979 80.9508 1 2 295
1922208N21088 1922 38 NI BB NOT_NAMED 1922-07-29 09:00:00 TS 23.8429 80.8705 main 0 0 _________PP___ -1 23.8425 80.9000 TC 30 23.8433 80.8410 1 2 299
1922208N21088 1922 38 NI BB NOT_NAMED 1922-07-29 12:00:00 TS 23.8836 80.8053 main 0 0 _________OP___ -1 23.9000 80.8000 TC 30 23.8672 80.8107 1 2 312
1922208N21088 1922 38 NI BB NOT_NAMED 1922-07-29 15:00:00 TS 23.9463 80.7463 main 0 0 _________PO___ -1 23.9925 80.6925 TC 30 23.9000 80.8000 1 2 324
1922208N21088 1922 38 NI BB NOT_NAMED 1922-07-29 18:00:00 TS 24.0232 80.6918 main 0 0 _________OP___ -1 24.1000 80.6000 TC 30 23.9655 80.7606 1 2 328
1922208N21088 1922 38 NI BB NOT_NAMED 1922-07-29 21:00:00 TS 24.1174 80.6304 main 0 0 _________PP___ -1 24.2025 80.5400 TC 30 24.0606 80.6908 1 2 330
1922208N21088 1922 38 NI BB NOT_NAMED 1922-07-30 00:00:00 TS 24.2170 80.5670 main 0 0 _________OP___ -1 24.3000 80.5000 TC 30 24.1754 80.6005 1 2 327
1922208N21088 1922 38 NI BB NOT_NAMED 1922-07-30 03:00:00 NR 24.3000 80.5000 main 0 __________O___ -1 TC 24.3000 80.5000 1 2 329

IBTrACS Databaseについて

本データベースは、米国NOAAが公開する1842年以降の世界の熱帯低気圧のベストトラックデータアーカイブInternational Best Track Archive for Climate Stewardship (IBTrACS)を、ウェブで閲覧しやすい形式に変換したものです。

最終更新日:2021-10-25